Time;durP1;ratioP1;P1;durP2;ratioP2;P2;SDS_P1;SDS_P2;PMS_P1;PMS_P2;Temp;Humidity;BMP_temperature;BMP_pressure;BME280_temperature;BME280_humidity;BME280_pressure;Samples;Min_cycle;Max_cycle;Signal;HPM_P1;HPM_P2
2022/05/30 00:01:42;;;;;;;4.35;1.00;;;11.50;99.90;;;;;;5008997;28;20054;-83
2022/05/30 00:04:08;;;;;;;3.25;1.10;;;11.40;99.90;;;;;;5011234;28;20056;-82
2022/05/30 00:06:35;;;;;;;1.85;0.80;;;11.40;99.90;;;;;;5006617;28;20426;-82
2022/05/30 00:09:03;;;;;;;3.20;1.00;;;11.40;99.90;;;;;;5006012;28;20404;-82
2022/05/30 00:11:29;;;;;;;1.88;1.00;;;11.40;99.90;;;;;;5008566;28;20050;-82
2022/05/30 00:13:57;;;;;;;3.28;1.10;;;11.40;99.90;;;;;;4999416;28;20050;-82
2022/05/30 00:16:25;;;;;;;1.75;1.00;;;11.30;99.90;;;;;;4999375;28;20056;-83
2022/05/30 00:18:52;;;;;;;2.80;0.90;;;11.30;99.90;;;;;;5006492;28;20533;-83
2022/05/30 00:21:24;;;;;;;1.92;1.00;;;11.20;99.90;;;;;;5014584;28;20042;-82
2022/05/30 00:23:53;;;;;;;3.15;1.20;;;11.20;99.90;;;;;;4989677;28;20053;-83
2022/05/30 00:26:22;;;;;;;2.00;1.20;;;11.20;99.90;;;;;;5011033;28;20046;-83
2022/05/30 00:28:49;;;;;;;2.55;1.23;;;11.20;99.90;;;;;;5009375;28;20500;-81
2022/05/30 00:31:18;;;;;;;2.42;1.23;;;11.10;99.90;;;;;;5008590;28;20074;-82
2022/05/30 00:33:46;;;;;;;4.85;1.10;;;11.10;99.90;;;;;;5011304;28;20090;-83
2022/05/30 00:36:13;;;;;;;3.63;1.00;;;11.10;99.90;;;;;;5008833;28;20058;-83
2022/05/30 00:38:40;;;;;;;3.17;1.08;;;11.10;99.90;;;;;;4998557;28;20125;-83
2022/05/30 00:41:07;;;;;;;1.33;1.13;;;11.00;99.90;;;;;;5011247;28;20421;-82
2022/05/30 00:43:37;;;;;;;2.35;1.10;;;11.00;99.90;;;;;;5009290;28;20041;-82
2022/05/30 00:46:11;;;;;;;3.53;1.40;;;11.00;99.90;;;;;;5011028;28;20070;-82
2022/05/30 00:48:42;;;;;;;4.57;1.10;;;11.00;99.90;;;;;;5008641;28;20517;-83
2022/05/30 00:51:16;;;;;;;3.25;1.38;;;11.00;99.90;;;;;;5006421;28;20050;-83
2022/05/30 00:53:45;;;;;;;6.50;1.17;;;10.90;99.90;;;;;;5012774;28;20049;-83
2022/05/30 00:56:14;;;;;;;2.97;1.30;;;10.90;99.90;;;;;;5013081;28;20050;-82
2022/05/30 00:58:46;;;;;;;3.33;1.20;;;10.90;99.90;;;;;;5012005;28;20073;-83
2022/05/30 01:01:14;;;;;;;3.45;1.58;;;10.80;99.90;;;;;;5012263;28;20053;-83
2022/05/30 01:06:41;;;;;;;3.13;1.30;;;10.70;99.90;;;;;;5010769;28;20081;-83
2022/05/30 01:09:12;;;;;;;3.10;1.27;;;10.70;99.90;;;;;;5010585;28;20056;-83
2022/05/30 01:11:51;;;;;;;1.40;1.05;;;10.70;99.90;;;;;;5010294;28;20054;-82
2022/05/30 01:14:19;;;;;;;2.33;1.08;;;10.70;99.90;;;;;;5005667;28;20064;-83
2022/05/30 01:16:46;;;;;;;1.65;1.10;;;10.60;99.90;;;;;;5008238;28;20114;-82
2022/05/30 01:19:50;;;;;;;3.38;1.20;;;10.50;99.90;;;;;;4998057;28;20046;-82
2022/05/30 01:22:30;;;;;;;4.85;1.33;;;10.50;99.90;;;;;;5006382;28;20056;-83
2022/05/30 01:25:05;;;;;;;4.00;1.70;;;10.50;99.90;;;;;;4990356;28;20050;-83
2022/05/30 01:27:44;;;;;;;2.35;0.93;;;10.50;99.90;;;;;;5006617;28;20077;-83
2022/05/30 01:30:14;;;;;;;4.78;1.58;;;10.40;99.90;;;;;;4986443;28;20048;-83
2022/05/30 01:32:41;;;;;;;2.85;1.20;;;10.30;99.90;;;;;;5012398;28;20053;-83
2022/05/30 01:35:09;;;;;;;4.68;1.30;;;10.30;99.90;;;;;;5016320;28;20058;-83
2022/05/30 01:37:35;;;;;;;5.50;1.50;;;10.30;99.90;;;;;;5007799;28;20060;-83
2022/05/30 01:40:02;;;;;;;2.40;1.10;;;10.30;99.90;;;;;;5017732;28;20056;-83
2022/05/30 01:42:29;;;;;;;2.58;1.52;;;10.20;99.90;;;;;;5009873;28;20056;-83
2022/05/30 01:44:56;;;;;;;2.97;1.40;;;10.20;99.90;;;;;;5006057;28;20056;-83
2022/05/30 01:47:23;;;;;;;2.35;1.20;;;10.20;99.90;;;;;;5010504;28;20454;-83
2022/05/30 01:49:50;;;;;;;2.75;1.38;;;10.20;99.90;;;;;;4996185;28;20080;-83
2022/05/30 01:52:16;;;;;;;2.17;1.00;;;10.10;99.90;;;;;;5007986;28;20069;-83
2022/05/30 01:54:43;;;;;;;4.60;1.35;;;10.00;99.90;;;;;;5005694;28;20065;-83
2022/05/30 01:57:10;;;;;;;6.15;1.67;;;10.00;99.90;;;;;;5005785;28;20517;-82
2022/05/30 01:59:36;;;;;;;4.72;1.95;;;10.00;99.90;;;;;;5007702;28;20050;-83
2022/05/30 02:02:03;;;;;;;5.18;1.55;;;10.00;99.90;;;;;;4998503;28;20054;-83
2022/05/30 02:04:30;;;;;;;3.75;1.27;;;10.00;99.90;;;;;;5005067;28;20046;-83
2022/05/30 02:06:57;;;;;;;4.25;1.50;;;10.00;99.90;;;;;;5006728;28;20113;-82
2022/05/30 02:09:23;;;;;;;3.47;1.65;;;9.90;99.90;;;;;;5007079;28;20478;-82
2022/05/30 02:11:50;;;;;;;7.82;1.63;;;9.90;99.90;;;;;;4998186;28;20050;-83
2022/05/30 02:14:17;;;;;;;2.30;1.60;;;9.90;99.90;;;;;;5007560;28;20141;-83
2022/05/30 02:17:02;;;;;;;2.85;1.60;;;9.80;99.90;;;;;;5008069;28;20485;-82
2022/05/30 02:19:31;;;;;;;2.20;1.30;;;9.80;99.90;;;;;;5008014;28;20054;-82
2022/05/30 02:22:00;;;;;;;4.40;1.33;;;9.80;99.90;;;;;;5004939;28;20133;-82
2022/05/30 02:24:27;;;;;;;3.80;1.67;;;9.80;99.90;;;;;;5005614;28;20058;-83
2022/05/30 02:26:54;;;;;;;4.05;1.55;;;9.60;99.90;;;;;;5008425;28;20480;-83
2022/05/30 02:29:20;;;;;;;3.72;1.50;;;9.60;99.90;;;;;;5006190;28;20054;-83
2022/05/30 02:31:47;;;;;;;4.68;1.50;;;9.60;99.90;;;;;;4999028;28;20057;-83
2022/05/30 02:37:00;;;;;;;2.38;1.45;;;9.60;99.90;;;;;;5009782;28;20423;-83
2022/05/30 02:39:28;;;;;;;4.28;1.50;;;9.60;99.90;;;;;;5005939;28;20444;-83
2022/05/30 02:41:55;;;;;;;3.53;1.58;;;9.50;99.90;;;;;;5007208;28;20129;-83
2022/05/30 02:44:24;;;;;;;2.60;1.50;;;9.40;99.90;;;;;;4996565;28;20056;-83
2022/05/30 02:46:55;;;;;;;3.17;1.55;;;9.40;99.90;;;;;;5006863;28;20051;-83
2022/05/30 02:49:21;;;;;;;4.18;1.95;;;9.40;99.90;;;;;;4999309;28;20080;-83
2022/05/30 02:51:48;;;;;;;7.28;1.73;;;9.40;99.90;;;;;;5009053;28;20050;-83
2022/05/30 02:54:16;;;;;;;3.75;1.67;;;9.40;99.90;;;;;;5007493;28;20128;-83
2022/05/30 02:56:51;;;;;;;3.33;1.70;;;9.40;99.90;;;;;;5011523;28;20051;-83
2022/05/30 02:59:19;;;;;;;3.70;1.42;;;9.40;99.90;;;;;;5025605;28;20114;-83
2022/05/30 03:01:46;;;;;;;2.95;1.35;;;9.40;99.90;;;;;;5022461;28;20049;-83
2022/05/30 03:04:13;;;;;;;4.88;1.67;;;9.40;99.90;;;;;;5027887;28;20033;-83
2022/05/30 03:06:41;;;;;;;5.78;1.88;;;9.30;99.90;;;;;;5025125;28;20046;-82
2022/05/30 03:09:08;;;;;;;4.20;1.40;;;9.30;99.90;;;;;;5008235;28;20081;-82
2022/05/30 03:11:41;;;;;;;3.83;1.98;;;9.30;99.90;;;;;;5008846;28;20128;-83
2022/05/30 03:14:08;;;;;;;3.63;1.25;;;9.30;99.90;;;;;;5010562;28;20050;-82
2022/05/30 03:16:34;;;;;;;1.52;1.30;;;9.20;99.90;;;;;;5011506;28;20081;-82
2022/05/30 03:19:01;;;;;;;3.60;1.30;;;9.20;99.90;;;;;;5008366;28;20114;-82
2022/05/30 03:21:28;;;;;;;2.65;1.58;;;9.10;99.90;;;;;;5009173;28;20057;-83
2022/05/30 03:23:55;;;;;;;3.10;1.58;;;9.10;99.90;;;;;;5008939;28;20133;-83
2022/05/30 03:26:21;;;;;;;6.40;1.60;;;9.10;99.90;;;;;;5000078;28;20061;-82
2022/05/30 03:28:48;;;;;;;4.40;1.42;;;9.10;99.90;;;;;;5010245;28;20534;-82
2022/05/30 03:31:15;;;;;;;2.05;1.48;;;9.10;99.90;;;;;;5009900;28;20042;-82
2022/05/30 03:33:42;;;;;;;4.47;1.63;;;9.00;99.90;;;;;;5001567;28;20101;-83
2022/05/30 03:36:20;;;;;;;3.15;1.40;;;9.00;99.90;;;;;;5010979;28;20090;-82
2022/05/30 03:38:47;;;;;;;3.35;1.38;;;9.00;99.90;;;;;;5009086;28;20046;-82
2022/05/30 03:41:15;;;;;;;1.52;1.40;;;9.00;99.90;;;;;;5020384;28;20100;-82
2022/05/30 03:43:41;;;;;;;2.47;1.50;;;9.00;99.90;;;;;;5002509;28;20069;-82
2022/05/30 03:46:08;;;;;;;2.15;1.42;;;9.00;99.90;;;;;;5010198;28;20062;-82
2022/05/30 03:48:35;;;;;;;4.68;1.73;;;8.90;99.90;;;;;;5010804;28;20133;-82
2022/05/30 03:51:12;;;;;;;5.40;1.85;;;8.90;99.90;;;;;;5010794;28;20042;-82
2022/05/30 03:53:39;;;;;;;2.13;1.65;;;8.80;99.90;;;;;;5008942;28;20054;-83
2022/05/30 03:56:05;;;;;;;2.47;1.60;;;8.80;99.90;;;;;;5008186;28;20043;-82
2022/05/30 03:58:32;;;;;;;5.32;1.67;;;8.80;99.90;;;;;;5010224;28;20106;-82
2022/05/30 04:00:59;;;;;;;4.65;1.85;;;8.80;99.90;;;;;;5005851;28;20125;-82
2022/05/30 04:03:25;;;;;;;5.88;1.80;;;8.90;99.90;;;;;;5011656;28;20090;-83
2022/05/30 04:05:52;;;;;;;3.05;1.88;;;8.80;99.90;;;;;;5010718;28;20050;-82
2022/05/30 04:08:19;;;;;;;2.55;1.50;;;8.80;99.90;;;;;;5009455;28;20109;-82
2022/05/30 04:10:46;;;;;;;3.47;1.33;;;8.80;99.90;;;;;;5008675;28;20057;-82
2022/05/30 04:13:12;;;;;;;2.75;1.25;;;8.90;99.90;;;;;;5007891;28;20068;-82
2022/05/30 04:15:39;;;;;;;1.45;1.20;;;8.80;99.90;;;;;;5010597;28;20442;-82
2022/05/30 04:18:07;;;;;;;5.38;1.50;;;8.80;99.90;;;;;;5011568;28;20480;-82
2022/05/30 04:20:34;;;;;;;2.03;1.42;;;8.70;99.90;;;;;;5007062;28;20056;-82
2022/05/30 04:23:01;;;;;;;1.65;1.38;;;8.70;99.90;;;;;;5010466;28;20054;-82
2022/05/30 04:25:28;;;;;;;2.70;1.40;;;8.80;99.90;;;;;;5008366;28;20443;-83
2022/05/30 04:27:55;;;;;;;3.78;1.80;;;8.80;99.90;;;;;;5006818;28;20048;-82
2022/05/30 04:30:22;;;;;;;4.75;1.45;;;8.80;99.90;;;;;;5006278;28;20054;-82
2022/05/30 04:32:49;;;;;;;2.78;1.50;;;8.90;99.90;;;;;;5008560;28;20061;-82
2022/05/30 04:35:17;;;;;;;1.58;1.45;;;8.90;99.90;;;;;;5009754;28;20507;-82
2022/05/30 04:37:46;;;;;;;2.22;1.80;;;9.00;99.90;;;;;;5008605;28;20056;-82
2022/05/30 04:40:17;;;;;;;5.25;2.08;;;9.00;99.90;;;;;;5003696;28;20089;-82
2022/05/30 04:42:45;;;;;;;2.58;1.50;;;9.00;99.90;;;;;;5006096;28;20081;-82
2022/05/30 04:45:13;;;;;;;1.80;1.40;;;9.10;99.90;;;;;;5006982;28;20049;-82
2022/05/30 04:47:40;;;;;;;2.03;1.48;;;9.20;99.90;;;;;;5005735;28;20054;-82
2022/05/30 04:50:13;;;;;;;4.22;1.50;;;9.30;99.90;;;;;;5025623;28;20041;-82
2022/05/30 04:52:41;;;;;;;1.90;1.15;;;9.40;99.90;;;;;;5028435;28;20034;-82
2022/05/30 04:55:09;;;;;;;2.90;1.33;;;9.60;99.90;;;;;;5030286;28;20105;-83
2022/05/30 04:57:48;;;;;;;4.60;1.75;;;9.90;99.90;;;;;;5028300;28;20037;-83
2022/05/30 05:00:19;;;;;;;2.05;1.63;;;10.10;99.90;;;;;;5026340;28;20068;-82
2022/05/30 05:02:46;;;;;;;3.65;1.33;;;10.40;99.90;;;;;;5034313;28;20097;-81
2022/05/30 05:05:13;;;;;;;2.38;0.95;;;10.50;99.90;;;;;;5022092;28;20046;-82
2022/05/30 05:08:00;;;;;;;1.40;1.20;;;10.70;99.90;;;;;;5017079;28;20050;-82
2022/05/30 05:10:41;;;;;;;2.55;1.45;;;11.00;99.90;;;;;;5010270;28;20419;-82
2022/05/30 05:13:08;;;;;;;4.32;1.38;;;11.10;99.90;;;;;;5010081;28;20057;-82
2022/05/30 05:15:35;;;;;;;6.22;1.30;;;11.30;99.90;;;;;;5010618;28;20050;-82
2022/05/30 05:18:02;;;;;;;3.60;1.30;;;11.50;99.90;;;;;;4998964;28;20054;-82
2022/05/30 05:20:29;;;;;;;1.70;1.17;;;11.50;99.90;;;;;;5010113;28;20045;-82
2022/05/30 05:22:56;;;;;;;1.92;1.40;;;11.70;99.90;;;;;;5008801;28;20050;-83
2022/05/30 05:25:22;;;;;;;3.88;1.58;;;11.60;99.90;;;;;;5006775;28;20514;-82
2022/05/30 05:27:50;;;;;;;4.40;1.63;;;11.50;99.90;;;;;;5007945;28;20046;-83
2022/05/30 05:30:16;;;;;;;1.88;1.20;;;11.70;99.90;;;;;;5009217;28;20054;-83
2022/05/30 05:32:43;;;;;;;3.58;1.40;;;11.70;99.90;;;;;;5005888;28;20109;-82
2022/05/30 05:35:10;;;;;;;2.03;1.20;;;11.80;99.90;;;;;;5009236;28;20056;-83
2022/05/30 05:37:37;;;;;;;4.38;1.55;;;11.80;99.90;;;;;;5009666;28;20092;-83
2022/05/30 05:40:04;;;;;;;5.50;1.60;;;11.80;99.90;;;;;;5008635;28;20054;-83
2022/05/30 05:42:31;;;;;;;3.55;1.42;;;11.60;99.90;;;;;;5008658;28;20048;-82
2022/05/30 05:44:58;;;;;;;4.32;1.58;;;11.60;99.90;;;;;;5010006;28;20052;-82
2022/05/30 05:47:24;;;;;;;6.28;1.55;;;11.50;99.90;;;;;;5008802;28;20080;-83
2022/05/30 05:49:58;;;;;;;6.07;1.67;;;11.50;99.90;;;;;;5011714;28;20137;-82
2022/05/30 05:52:28;;;;;;;3.22;1.52;;;11.50;99.90;;;;;;5010700;28;20058;-82
2022/05/30 05:54:55;;;;;;;2.28;1.60;;;11.50;99.90;;;;;;5001797;28;20129;-83
2022/05/30 05:57:25;;;;;;;2.55;2.00;;;11.30;99.90;;;;;;5006890;28;20057;-82
2022/05/30 05:59:52;;;;;;;4.20;1.97;;;11.20;99.90;;;;;;5009543;28;20129;-82
2022/05/30 06:02:19;;;;;;;2.95;1.52;;;11.10;99.90;;;;;;5008167;28;20052;-82
2022/05/30 06:04:46;;;;;;;6.13;1.65;;;11.00;99.90;;;;;;5009658;28;20521;-82
2022/05/30 06:07:13;;;;;;;3.00;1.77;;;11.00;99.90;;;;;;5001992;28;20060;-83
2022/05/30 06:09:40;;;;;;;9.07;1.92;;;11.00;99.90;;;;;;5007266;28;20113;-82
2022/05/30 06:12:10;;;;;;;6.32;1.98;;;11.00;99.90;;;;;;5007404;28;20053;-82
2022/05/30 06:14:37;;;;;;;4.30;1.90;;;11.00;99.90;;;;;;5001465;28;20053;-82
2022/05/30 06:17:04;;;;;;;2.05;1.65;;;11.00;99.90;;;;;;5010617;28;20504;-82
2022/05/30 06:19:31;;;;;;;3.63;1.90;;;11.00;99.90;;;;;;5012295;28;20050;-82
2022/05/30 06:21:57;;;;;;;3.60;2.20;;;11.10;99.90;;;;;;5007602;28;20050;-82
2022/05/30 06:24:24;;;;;;;3.10;1.90;;;11.10;99.90;;;;;;5008615;28;20045;-82
2022/05/30 06:26:51;;;;;;;4.65;2.10;;;11.20;99.90;;;;;;5009909;28;20050;-83
2022/05/30 06:29:18;;;;;;;3.45;2.03;;;11.30;99.90;;;;;;5011158;28;20583;-83
2022/05/30 06:31:45;;;;;;;4.47;2.25;;;11.30;99.90;;;;;;5016988;28;20057;-83
2022/05/30 06:34:12;;;;;;;4.43;1.92;;;11.30;99.90;;;;;;5010067;28;20104;-83
2022/05/30 06:36:40;;;;;;;3.35;2.15;;;11.30;99.90;;;;;;5008375;28;20085;-82
2022/05/30 06:39:07;;;;;;;5.03;2.40;;;11.30;99.90;;;;;;5009456;28;20125;-83
2022/05/30 06:41:34;;;;;;;5.65;2.22;;;11.30;99.90;;;;;;5009094;28;20085;-82
2022/05/30 06:44:06;;;;;;;5.10;2.70;;;11.30;99.90;;;;;;5010464;28;20046;-82
2022/05/30 06:46:34;;;;;;;4.53;2.38;;;11.30;99.90;;;;;;5000994;28;20050;-83
2022/05/30 06:49:02;;;;;;;7.18;2.58;;;11.40;99.90;;;;;;5011244;28;20053;-82
2022/05/30 06:51:31;;;;;;;4.05;2.25;;;11.40;99.90;;;;;;5010755;28;20051;-83
2022/05/30 06:53:57;;;;;;;5.63;2.25;;;11.40;99.90;;;;;;5008885;28;20051;-81
2022/05/30 06:56:30;;;;;;;6.32;2.45;;;11.30;99.90;;;;;;5014114;28;20050;-82
2022/05/30 06:58:57;;;;;;;3.95;2.42;;;11.40;99.90;;;;;;5003139;28;20049;-82
2022/05/30 07:01:30;;;;;;;3.35;2.35;;;11.40;99.90;;;;;;5000102;28;20128;-81
2022/05/30 07:03:57;;;;;;;3.67;2.47;;;11.50;99.90;;;;;;5016340;28;20038;-82
2022/05/30 07:06:33;;;;;;;5.18;2.28;;;11.50;99.90;;;;;;5019550;28;20042;-83
2022/05/30 07:09:01;;;;;;;4.25;2.38;;;11.60;99.90;;;;;;5001895;28;20078;-82
2022/05/30 07:11:28;;;;;;;7.05;2.70;;;11.60;99.90;;;;;;5014642;28;20054;-83
2022/05/30 07:13:55;;;;;;;3.42;2.72;;;11.60;99.90;;;;;;5014269;28;20053;-82
2022/05/30 07:16:24;;;;;;;3.90;2.17;;;11.60;99.90;;;;;;5013353;28;20519;-82
2022/05/30 07:18:51;;;;;;;5.15;2.40;;;11.70;99.90;;;;;;5008122;28;20050;-81
2022/05/30 07:21:18;;;;;;;4.60;2.92;;;11.70;99.90;;;;;;5014843;28;20060;-81
2022/05/30 07:23:45;;;;;;;5.85;2.70;;;11.80;99.90;;;;;;5014939;28;20089;-82
2022/05/30 07:26:16;;;;;;;4.63;3.28;;;11.80;99.90;;;;;;5011291;28;20046;-82
2022/05/30 07:28:44;;;;;;;7.97;2.63;;;11.80;99.90;;;;;;5011097;28;20121;-82
2022/05/30 07:31:15;;;;;;;3.45;2.33;;;11.80;99.90;;;;;;5001151;28;20053;-82
2022/05/30 07:33:44;;;;;;;3.70;2.60;;;11.90;99.90;;;;;;5007821;28;20054;-82
2022/05/30 07:36:14;;;;;;;8.30;2.40;;;11.90;99.90;;;;;;5009939;28;20060;-81
2022/05/30 07:38:42;;;;;;;5.72;2.33;;;11.90;99.90;;;;;;5012593;28;20104;-82
2022/05/30 07:41:09;;;;;;;4.18;2.25;;;12.00;99.90;;;;;;5011492;28;20085;-82
2022/05/30 07:43:36;;;;;;;5.30;2.50;;;12.10;99.90;;;;;;5008930;28;20105;-82
2022/05/30 07:46:05;;;;;;;8.10;2.90;;;12.10;99.90;;;;;;5009164;28;20047;-80
2022/05/30 07:48:32;;;;;;;6.00;2.30;;;12.20;99.90;;;;;;5010320;28;20042;-82
2022/05/30 07:51:00;;;;;;;5.90;2.63;;;12.20;99.90;;;;;;5011357;28;20050;-82
2022/05/30 07:53:28;;;;;;;7.53;3.10;;;12.30;99.90;;;;;;5011455;28;20046;-83
2022/05/30 07:55:55;;;;;;;3.35;2.58;;;12.30;99.90;;;;;;5011001;28;20054;-80
2022/05/30 07:58:21;;;;;;;4.15;2.63;;;12.40;99.90;;;;;;5012057;28;20081;-80
2022/05/30 08:00:49;;;;;;;4.30;2.50;;;12.30;99.90;;;;;;5013465;28;20141;-81
2022/05/30 08:03:16;;;;;;;5.25;3.63;;;12.40;99.90;;;;;;5010420;28;20049;-81
2022/05/30 08:05:43;;;;;;;6.10;3.28;;;12.40;99.90;;;;;;5011950;28;20065;-80
2022/05/30 08:08:10;;;;;;;6.75;3.80;;;12.50;99.90;;;;;;5012118;28;20056;-79
2022/05/30 08:10:37;;;;;;;5.35;2.70;;;12.60;99.90;;;;;;5014511;28;20117;-80
2022/05/30 08:13:04;;;;;;;3.95;2.22;;;12.70;99.90;;;;;;5005898;28;20422;-79
2022/05/30 08:15:31;;;;;;;4.30;2.28;;;12.70;99.90;;;;;;5005599;28;20078;-81
2022/05/30 08:17:59;;;;;;;7.10;2.22;;;12.80;99.90;;;;;;5001429;28;20046;-81
2022/05/30 08:20:28;;;;;;;4.05;2.00;;;12.90;99.90;;;;;;5017041;28;20045;-81
2022/05/30 08:22:55;;;;;;;3.80;1.67;;;12.90;99.90;;;;;;5013867;28;20053;-81
2022/05/30 08:25:22;;;;;;;4.57;1.40;;;13.00;99.90;;;;;;5016512;28;20046;-81
2022/05/30 08:27:49;;;;;;;5.05;2.05;;;13.10;99.90;;;;;;5014418;28;20046;-81
2022/05/30 08:30:20;;;;;;;5.10;2.10;;;13.10;99.90;;;;;;5000870;28;20054;-81
2022/05/30 08:32:47;;;;;;;2.33;1.80;;;13.10;99.90;;;;;;5009030;28;20404;-80
2022/05/30 08:35:16;;;;;;;4.13;1.60;;;13.20;99.90;;;;;;5017080;28;20046;-82
2022/05/30 08:37:44;;;;;;;4.28;1.63;;;13.30;99.90;;;;;;5015091;28;20092;-81
2022/05/30 08:43:16;;;;;;;2.63;1.45;;;13.40;99.90;;;;;;5006989;28;20061;-82
2022/05/30 08:45:46;;;;;;;4.00;1.65;;;13.50;99.90;;;;;;5007927;28;20064;-82
2022/05/30 08:48:15;;;;;;;3.80;1.43;;;13.50;99.90;;;;;;5000066;28;20129;-80
2022/05/30 08:51:07;;;;;;;4.15;1.60;;;13.60;99.90;;;;;;5008811;28;20050;-82
2022/05/30 08:53:53;;;;;;;3.55;1.40;;;13.60;99.90;;;;;;5007076;28;20128;-81
2022/05/30 08:56:23;;;;;;;5.38;1.65;;;13.80;99.90;;;;;;5008371;28;20053;-80
2022/05/30 08:58:58;;;;;;;8.40;1.75;;;13.90;99.90;;;;;;5006322;28;20396;-80
2022/05/30 09:01:43;;;;;;;2.55;1.33;;;14.00;99.90;;;;;;4992390;28;20050;-81
2022/05/30 09:04:31;;;;;;;6.72;1.45;;;14.10;99.90;;;;;;5007186;28;20511;-81
2022/05/30 09:07:05;;;;;;;2.33;0.93;;;14.20;99.90;;;;;;4999887;28;20052;-81
2022/05/30 09:10:04;;;;;;;3.88;1.00;;;14.20;99.90;;;;;;5005369;28;20077;-79
2022/05/30 09:12:37;;;;;;;3.92;1.08;;;14.20;99.90;;;;;;5003620;28;20142;-81
2022/05/30 09:15:22;;;;;;;1.98;1.08;;;14.30;99.90;;;;;;5002589;28;20692;-80
2022/05/30 09:18:07;;;;;;;2.78;1.40;;;14.30;99.90;;;;;;5003918;28;20050;-81
2022/05/30 09:20:35;;;;;;;2.90;0.90;;;14.40;99.90;;;;;;5006579;28;20053;-81
2022/05/30 09:23:03;;;;;;;3.95;1.10;;;14.40;99.90;;;;;;5014158;28;20056;-81
2022/05/30 09:26:01;;;;;;;4.50;1.45;;;14.50;99.90;;;;;;4998114;28;20045;-81
2022/05/30 09:28:31;;;;;;;1.45;1.00;;;14.60;99.90;;;;;;4995628;28;20081;-81
2022/05/30 09:31:15;;;;;;;3.20;1.00;;;14.80;99.90;;;;;;5002879;28;20047;-80
2022/05/30 09:33:45;;;;;;;3.67;1.17;;;14.90;99.90;;;;;;4996009;28;20077;-80
2022/05/30 09:36:29;;;;;;;3.22;1.00;;;14.80;99.90;;;;;;5005505;28;20050;-80
2022/05/30 09:39:00;;;;;;;4.85;0.90;;;14.90;99.90;;;;;;5008106;28;20046;-80
2022/05/30 09:41:47;;;;;;;1.83;1.00;;;14.90;99.90;;;;;;5007743;28;20046;-80
2022/05/30 09:44:17;;;;;;;2.63;0.70;;;15.00;99.90;;;;;;5004274;28;20133;-80
2022/05/30 09:46:51;;;;;;;2.13;0.90;;;15.10;99.90;;;;;;5006894;28;20120;-82
2022/05/30 09:49:21;;;;;;;1.45;0.80;;;15.10;99.90;;;;;;5005181;28;20281;-81
2022/05/30 09:51:58;;;;;;;2.65;0.95;;;15.10;99.90;;;;;;5008409;28;20172;-80
2022/05/30 09:54:25;;;;;;;1.48;0.90;;;15.20;99.90;;;;;;5007393;28;20466;-80
2022/05/30 09:57:07;;;;;;;3.00;0.85;;;15.30;99.90;;;;;;5008617;28;20490;-81
2022/05/30 09:59:45;;;;;;;2.10;0.80;;;15.30;99.90;;;;;;5008143;28;20112;-80
2022/05/30 10:02:27;;;;;;;2.33;0.93;;;15.30;99.90;;;;;;4999630;28;20092;-81
2022/05/30 10:05:00;;;;;;;2.95;0.95;;;15.30;99.90;;;;;;4990512;28;20121;-81
2022/05/30 10:07:28;;;;;;;1.95;0.90;;;15.30;99.90;;;;;;5011410;28;20048;-81
2022/05/30 10:10:20;;;;;;;1.77;0.70;;;15.40;99.90;;;;;;5000937;28;20046;-82
2022/05/30 10:12:56;;;;;;;2.10;1.00;;;15.50;99.90;;;;;;4986293;28;20054;-79
2022/05/30 10:15:57;;;;;;;2.67;0.73;;;15.50;99.90;;;;;;4997946;28;20460;-82
2022/05/30 10:18:27;;;;;;;2.70;1.00;;;15.60;99.90;;;;;;4987556;28;20061;-82
2022/05/30 10:21:10;;;;;;;2.00;0.70;;;15.70;99.90;;;;;;5007584;28;20491;-80
2022/05/30 10:30:12;;;;;;;6.57;1.45;;;15.80;99.90;;;;;;5011724;28;19921;-83
2022/05/30 10:32:59;;;;;;;2.42;1.05;;;15.80;99.90;;;;;;5012840;28;20056;-81
2022/05/30 10:35:38;;;;;;;2.17;0.90;;;15.80;99.90;;;;;;5008155;28;20554;-83
2022/05/30 10:38:23;;;;;;;1.95;1.13;;;15.80;99.90;;;;;;5008245;28;20042;-82
2022/05/30 10:41:09;;;;;;;2.33;1.05;;;15.80;99.90;;;;;;5009480;28;20076;-81
2022/05/30 10:44:09;;;;;;;3.83;1.10;;;15.90;99.90;;;;;;5011948;28;20049;-82
2022/05/30 10:46:50;;;;;;;3.13;1.02;;;16.10;99.90;;;;;;5004394;28;20124;-82
2022/05/30 10:49:21;;;;;;;4.03;1.02;;;16.10;99.90;;;;;;5010390;28;20392;-82
2022/05/30 10:51:54;;;;;;;2.40;0.90;;;16.10;99.90;;;;;;4996686;28;20069;-82
2022/05/30 10:54:32;;;;;;;2.97;0.70;;;16.20;99.90;;;;;;5009191;28;20050;-81
2022/05/30 10:57:13;;;;;;;;;;;16.20;99.90;;;;;;5008626;28;20045;-84
2022/05/30 10:59:47;;;;;;;2.45;1.10;;;16.20;99.90;;;;;;4992169;28;20013;-82
2022/05/30 11:02:31;;;;;;;2.55;1.10;;;16.20;99.90;;;;;;4991634;28;20114;-80
2022/05/30 11:05:06;;;;;;;1.77;0.90;;;16.20;99.90;;;;;;4999432;28;20052;-81
2022/05/30 11:07:48;;;;;;;2.88;1.08;;;16.20;99.90;;;;;;5007831;28;20077;-81
2022/05/30 11:10:33;;;;;;;2.42;1.50;;;16.30;99.90;;;;;;5009101;28;20419;-81
2022/05/30 11:13:21;;;;;;;2.38;0.90;;;16.40;99.90;;;;;;5007808;28;20084;-79
2022/05/30 11:15:52;;;;;;;3.25;1.00;;;16.50;99.90;;;;;;5006793;28;20054;-81
2022/05/30 11:18:48;;;;;;;3.00;0.90;;;16.50;99.90;;;;;;5011447;28;20054;-79
2022/05/30 11:21:36;;;;;;;1.02;0.70;;;16.50;99.90;;;;;;5015582;28;20057;-82
2022/05/30 11:24:05;;;;;;;2.63;0.90;;;16.50;99.90;;;;;;5016823;28;20050;-80
2022/05/30 11:27:10;;;;;;;3.25;1.15;;;16.60;99.90;;;;;;5007172;28;20068;-81
2022/05/30 11:30:02;;;;;;;2.92;0.90;;;16.60;99.90;;;;;;5009894;28;20129;-79
2022/05/30 11:32:32;;;;;;;1.90;0.82;;;16.70;99.90;;;;;;5012465;28;20081;-82
2022/05/30 11:35:24;;;;;;;2.22;0.80;;;16.70;99.90;;;;;;5009868;28;20423;-80
2022/05/30 11:38:14;;;;;;;2.83;0.70;;;16.80;99.90;;;;;;5012831;28;20527;-80
2022/05/30 11:41:18;;;;;;;2.88;1.00;;;16.90;99.90;;;;;;5009763;28;20050;-81
2022/05/30 11:44:03;;;;;;;1.90;0.88;;;16.90;99.90;;;;;;5014344;28;20108;-81
2022/05/30 11:46:54;;;;;;;3.80;0.70;;;17.00;99.90;;;;;;5012037;28;20060;-83
2022/05/30 11:49:27;;;;;;;6.95;1.23;;;17.10;99.90;;;;;;5006791;28;20456;-83
2022/05/30 11:52:07;;;;;;;3.47;0.93;;;17.10;99.90;;;;;;5011077;28;20427;-82
2022/05/30 11:54:49;;;;;;;5.00;0.80;;;17.10;99.80;;;;;;5012183;28;20060;-83
2022/05/30 11:57:33;;;;;;;2.88;0.70;;;17.10;99.90;;;;;;4992318;28;20072;-79
2022/05/30 12:00:13;;;;;;;2.60;0.90;;;17.10;99.40;;;;;;5008365;28;20046;-81
2022/05/30 12:02:59;;;;;;;3.95;0.98;;;17.00;98.80;;;;;;5007708;28;20412;-79
2022/05/30 12:05:26;;;;;;;1.80;0.80;;;17.00;98.50;;;;;;5008522;28;20046;-83
2022/05/30 12:08:22;;;;;;;0.75;0.75;;;17.00;97.50;;;;;;5006277;28;20082;-80
2022/05/30 12:10:58;;;;;;;4.90;1.40;;;17.00;98.30;;;;;;5008053;28;20130;-83
2022/05/30 12:13:34;;;;;;;4.70;0.98;;;17.00;98.10;;;;;;5007317;28;20124;-81
2022/05/30 12:16:26;;;;;;;2.30;0.88;;;17.20;99.90;;;;;;5006688;28;20050;-80
2022/05/30 12:24:53;;;;;;;2.63;0.80;;;17.30;99.90;;;;;;5014474;28;20454;-83
2022/05/30 12:27:26;;;;;;;2.38;0.80;;;17.40;99.70;;;;;;5005715;28;20046;-81
2022/05/30 12:29:54;;;;;;;1.73;0.90;;;17.40;99.90;;;;;;5006845;28;20046;-82
2022/05/30 12:32:36;;;;;;;2.28;1.02;;;17.40;99.90;;;;;;5008735;28;20640;-83
2022/05/30 12:35:10;;;;;;;1.77;0.80;;;17.40;98.50;;;;;;5009266;28;20061;-82
2022/05/30 12:37:44;;;;;;;3.13;0.88;;;17.50;99.20;;;;;;5008929;28;20056;-80
2022/05/30 12:40:19;;;;;;;1.58;1.00;;;17.40;99.40;;;;;;5008004;28;20050;-82
2022/05/30 12:43:32;;;;;;;5.38;0.88;;;17.50;98.80;;;;;;5007752;28;20530;-83
2022/05/30 12:45:59;;;;;;;4.82;1.20;;;17.50;98.20;;;;;;5008707;28;20050;-81
2022/05/30 12:48:52;;;;;;;7.07;1.20;;;17.50;98.90;;;;;;5006534;28;20048;-79
2022/05/30 12:51:26;;;;;;;7.55;1.30;;;17.60;99.90;;;;;;4991376;28;20089;-83
2022/05/30 12:53:58;;;;;;;4.03;1.25;;;17.60;98.00;;;;;;5005873;28;20050;-83
2022/05/30 12:57:00;;;;;;;2.25;0.73;;;17.50;98.10;;;;;;4989036;28;20511;-82
2022/05/30 12:59:33;;;;;;;2.72;0.90;;;17.60;98.50;;;;;;5001630;28;20054;-83
2022/05/30 13:02:02;;;;;;;2.53;1.10;;;17.60;98.50;;;;;;5006407;28;20050;-82
2022/05/30 13:04:35;;;;;;;2.72;0.80;;;17.60;99.10;;;;;;4998558;28;20084;-82
2022/05/30 13:07:02;;;;;;;2.13;1.00;;;17.70;98.00;;;;;;5010565;28;20093;-83
2022/05/30 13:09:40;;;;;;;1.58;0.82;;;17.70;98.30;;;;;;5005310;28;20050;-80
2022/05/30 13:12:10;;;;;;;3.97;1.15;;;17.70;99.20;;;;;;5005797;28;20486;-81
2022/05/30 13:14:36;;;;;;;3.05;0.98;;;17.80;99.90;;;;;;5007277;28;20132;-81
2022/05/30 13:17:12;;;;;;;2.63;0.85;;;17.90;99.20;;;;;;5007570;28;20054;-83
2022/05/30 13:19:54;;;;;;;2.85;1.05;;;17.90;98.40;;;;;;5005600;28;20050;-81
2022/05/30 13:22:35;;;;;;;4.22;0.90;;;17.80;98.00;;;;;;5005998;28;20053;-81
2022/05/30 13:25:06;;;;;;;0.98;0.80;;;17.90;98.00;;;;;;5005678;28;20077;-81
2022/05/30 13:27:33;;;;;;;3.00;0.95;;;17.90;97.90;;;;;;5006424;28;20046;-82
2022/05/30 13:30:10;;;;;;;1.95;0.85;;;18.00;98.30;;;;;;5007762;28;20052;-83
2022/05/30 13:32:38;;;;;;;4.00;0.68;;;18.00;98.00;;;;;;5007707;28;20503;-81
2022/05/30 13:35:12;;;;;;;1.77;0.70;;;18.10;98.50;;;;;;5006337;28;20054;-83
2022/05/30 13:37:44;;;;;;;1.33;0.70;;;18.10;98.40;;;;;;5005112;28;20056;-81